Time;durP1;ratioP1;P1;durP2;ratioP2;P2;SDS_P1;SDS_P2;PMS_P1;PMS_P2;Temp;Humidity;BMP_temperature;BMP_pressure;BME280_temperature;BME280_humidity;BME280_pressure;Samples;Min_cycle;Max_cycle;Signal;HPM_P1;HPM_P2
2021/09/02 00:00:57;;;;;;;12.15;6.57;;;;;;;;;;4318048;33;20137;-79
2021/09/02 00:03:23;;;;;;;8.60;5.97;;;;;;;;;;4328975;33;20444;-79
2021/09/02 00:05:48;;;;;;;8.85;5.80;;;;;;;;;;4336059;33;20681;-79
2021/09/02 00:08:19;;;;;;;9.63;5.70;;;;;;;;;;4316272;33;20160;-79
2021/09/02 00:10:51;;;;;;;8.35;5.90;;;;;;;;;;4316991;33;20175;-79
2021/09/02 00:13:16;;;;;;;8.43;5.80;;;;;;;;;;4317197;33;20183;-79
2021/09/02 00:15:45;;;;;;;8.20;5.40;;;;;;;;;;4316463;33;20498;-79
2021/09/02 00:18:13;;;;;;;7.12;5.32;;;;;;;;;;4316457;33;20191;-79
2021/09/02 00:20:39;;;;;;;10.30;5.72;;;;;;;;;;4316991;33;20152;-79
2021/09/02 00:23:25;;;;;;;7.50;5.28;;;;;;;;;;4326854;33;20159;-79
2021/09/02 00:25:50;;;;;;;9.07;5.47;;;;;;;;;;4319453;33;20167;-79
2021/09/02 00:28:16;;;;;;;6.53;4.78;;;;;;;;;;4333779;33;20155;-79
2021/09/02 00:31:07;;;;;;;8.32;5.20;;;;;;;;;;4334365;33;20596;-79
2021/09/02 00:33:32;;;;;;;7.60;5.47;;;;;;;;;;4326363;33;20159;-79
2021/09/02 00:35:58;;;;;;;8.38;5.15;;;;;;;;;;4346599;33;20504;-78
2021/09/02 00:38:32;;;;;;;8.23;5.15;;;;;;;;;;4348101;33;20463;-79
2021/09/02 00:41:05;;;;;;;6.62;4.60;;;;;;;;;;4360412;32;20225;-79
2021/09/02 00:43:41;;;;;;;6.85;4.70;;;;;;;;;;4348543;33;20282;-79
2021/09/02 00:46:15;;;;;;;6.45;4.40;;;;;;;;;;4348278;33;20453;-79
2021/09/02 00:48:50;;;;;;;8.88;4.47;;;;;;;;;;4346467;33;20190;-79
2021/09/02 00:51:18;;;;;;;5.93;4.37;;;;;;;;;;4346446;33;20265;-78
2021/09/02 00:53:57;;;;;;;8.60;4.95;;;;;;;;;;4333089;33;20155;-78
2021/09/02 00:56:40;;;;;;;7.20;4.70;;;;;;;;;;4333162;33;20177;-78
2021/09/02 00:59:05;;;;;;;7.57;4.55;;;;;;;;;;4341349;33;20159;-78
2021/09/02 01:01:31;;;;;;;8.23;4.97;;;;;;;;;;4348207;33;20488;-78
2021/09/02 01:03:56;;;;;;;7.30;4.03;;;;;;;;;;4346404;33;20236;-78
2021/09/02 01:06:30;;;;;;;6.25;4.20;;;;;;;;;;4355836;32;20151;-78
2021/09/02 01:08:56;;;;;;;9.02;4.70;;;;;;;;;;4333693;33;20163;-78
2021/09/02 01:11:30;;;;;;;6.57;4.43;;;;;;;;;;4333428;33;20504;-78
2021/09/02 01:13:57;;;;;;;8.18;4.60;;;;;;;;;;4333143;33;20151;-78
2021/09/02 01:16:31;;;;;;;8.15;4.82;;;;;;;;;;4332531;33;20607;-78
2021/09/02 01:18:59;;;;;;;7.80;4.50;;;;;;;;;;4332922;33;20274;-78
2021/09/02 01:21:37;;;;;;;7.32;4.70;;;;;;;;;;4335543;33;20217;-78
2021/09/02 01:24:02;;;;;;;7.18;4.75;;;;;;;;;;4350564;32;20155;-78
2021/09/02 01:26:28;;;;;;;7.85;5.12;;;;;;;;;;4344509;33;20217;-78
2021/09/02 01:29:03;;;;;;;8.10;4.90;;;;;;;;;;4361574;32;20554;-78
2021/09/02 01:32:12;;;;;;;9.02;4.60;;;;;;;;;;4360327;32;20488;-78
2021/09/02 01:34:37;;;;;;;9.75;5.07;;;;;;;;;;4311640;33;20226;-78
2021/09/02 01:37:57;;;;;;;9.43;4.65;;;;;;;;;;4303303;33;20558;-78
2021/09/02 01:39:57;;;;;;;9.07;4.90;;;;;;;;;;4341008;33;20175;-78
2021/09/02 01:42:43;;;;;;;9.13;5.00;;;;;;;;;;4359452;32;20588;-78
2021/09/02 01:45:12;;;;;;;7.05;4.55;;;;;;;;;;4360149;32;20224;-78
2021/09/02 01:47:40;;;;;;;7.18;4.90;;;;;;;;;;4359281;33;20159;-79
2021/09/02 01:50:05;;;;;;;7.03;4.82;;;;;;;;;;4347130;33;20168;-78
2021/09/02 01:52:30;;;;;;;7.80;4.87;;;;;;;;;;4343582;33;20618;-78
2021/09/02 01:54:58;;;;;;;8.25;5.12;;;;;;;;;;4347026;33;20189;-78
2021/09/02 01:57:24;;;;;;;9.88;5.60;;;;;;;;;;4359531;32;20167;-78
2021/09/02 01:59:52;;;;;;;7.57;4.70;;;;;;;;;;4346851;33;20236;-78
2021/09/02 02:02:20;;;;;;;6.87;4.72;;;;;;;;;;4346779;33;20490;-78
2021/09/02 02:04:45;;;;;;;9.60;5.20;;;;;;;;;;4337983;33;20183;-78
2021/09/02 02:07:22;;;;;;;8.73;5.15;;;;;;;;;;4332274;33;20525;-78
2021/09/02 02:10:00;;;;;;;8.38;5.10;;;;;;;;;;4332900;33;20156;-78
2021/09/02 02:12:36;;;;;;;8.63;4.87;;;;;;;;;;4332762;33;20227;-78
2021/09/02 02:15:02;;;;;;;8.88;5.60;;;;;;;;;;4332725;33;20520;-78
2021/09/02 02:17:27;;;;;;;8.90;5.43;;;;;;;;;;4331933;33;20175;-78
2021/09/02 02:20:02;;;;;;;6.60;4.78;;;;;;;;;;4332002;33;20269;-78
2021/09/02 02:22:36;;;;;;;7.47;4.93;;;;;;;;;;4338283;33;20174;-78
2021/09/02 02:25:01;;;;;;;8.23;5.95;;;;;;;;;;4335880;33;20159;-78
2021/09/02 02:27:36;;;;;;;8.77;5.28;;;;;;;;;;4331753;33;20221;-78
2021/09/02 02:30:21;;;;;;;8.32;5.03;;;;;;;;;;4332311;33;20276;-78
2021/09/02 02:33:19;;;;;;;9.77;5.57;;;;;;;;;;4332366;33;20163;-78
2021/09/02 02:38:35;;;;;;;8.07;5.55;;;;;;;;;;4322197;33;20174;-78
2021/09/02 02:41:00;;;;;;;8.20;5.55;;;;;;;;;;4345226;33;20450;-78
2021/09/02 02:43:35;;;;;;;10.77;5.28;;;;;;;;;;4331710;33;20460;-78
2021/09/02 02:46:02;;;;;;;10.18;5.65;;;;;;;;;;4332359;33;20191;-78
2021/09/02 02:48:28;;;;;;;9.52;5.43;;;;;;;;;;4346649;33;20154;-78
2021/09/02 02:50:56;;;;;;;10.45;5.57;;;;;;;;;;4346645;33;20615;-78
2021/09/02 02:53:32;;;;;;;8.77;5.62;;;;;;;;;;4342573;33;20164;-78
2021/09/02 02:56:08;;;;;;;7.90;5.10;;;;;;;;;;4332207;33;20168;-78
2021/09/02 02:58:33;;;;;;;9.07;5.53;;;;;;;;;;4332196;33;20178;-78
2021/09/02 03:01:11;;;;;;;9.00;5.60;;;;;;;;;;4331711;33;20151;-78
2021/09/02 03:03:37;;;;;;;9.75;5.70;;;;;;;;;;4331830;33;20209;-78
2021/09/02 03:06:12;;;;;;;;;;;;;;;;;;;;;
2021/09/02 03:08:38;;;;;;;10.70;6.28;;;;;;;;;;4345520;33;20142;-79
2021/09/02 03:11:04;;;;;;;9.95;5.70;;;;;;;;;;4332386;33;20186;-78
2021/09/02 03:13:29;;;;;;;8.80;5.32;;;;;;;;;;4346253;33;20215;-78
2021/09/02 03:15:58;;;;;;;10.55;5.62;;;;;;;;;;4346426;33;20162;-78
2021/09/02 03:18:38;;;;;;;10.02;5.50;;;;;;;;;;4359802;33;20138;-78
2021/09/02 03:21:04;;;;;;;9.73;5.70;;;;;;;;;;4332638;33;20608;-78
2021/09/02 03:23:38;;;;;;;9.52;5.57;;;;;;;;;;4331670;33;20151;-78
2021/09/02 03:26:23;;;;;;;10.15;6.00;;;;;;;;;;4346341;33;20170;-78
2021/09/02 03:28:52;;;;;;;9.70;5.97;;;;;;;;;;4358133;33;20174;-78
2021/09/02 03:31:20;;;;;;;9.80;6.20;;;;;;;;;;4346148;33;20171;-78
2021/09/02 03:33:48;;;;;;;10.55;6.05;;;;;;;;;;4346163;33;20156;-78
2021/09/02 03:36:14;;;;;;;12.10;6.70;;;;;;;;;;4345918;33;20258;-78
2021/09/02 03:38:39;;;;;;;9.15;5.65;;;;;;;;;;4352738;33;20520;-79
2021/09/02 03:41:20;;;;;;;;;;;;;;;;;;;;;
2021/09/02 03:43:49;;;;;;;11.82;6.75;;;;;;;;;;4362874;32;20543;-79
2021/09/02 03:46:14;;;;;;;12.10;6.47;;;;;;;;;;4361468;32;20201;-78
2021/09/02 03:48:41;;;;;;;7.82;6.05;;;;;;;;;;4361200;32;20644;-78
2021/09/02 03:51:11;;;;;;;13.73;6.70;;;;;;;;;;4360988;32;20164;-79
2021/09/02 03:53:38;;;;;;;11.40;6.82;;;;;;;;;;4361555;33;20572;-79
2021/09/02 03:56:04;;;;;;;11.95;6.47;;;;;;;;;;4348550;33;20163;-79
2021/09/02 03:58:32;;;;;;;11.68;6.47;;;;;;;;;;4361003;32;20213;-79
2021/09/02 04:00:58;;;;;;;9.60;5.80;;;;;;;;;;4348990;33;20615;-78
2021/09/02 04:03:23;;;;;;;10.82;6.18;;;;;;;;;;4333763;33;20195;-78
2021/09/02 04:05:48;;;;;;;13.07;6.90;;;;;;;;;;4333971;33;20233;-78
2021/09/02 04:08:13;;;;;;;8.60;5.55;;;;;;;;;;4337880;33;20609;-78
2021/09/02 04:10:39;;;;;;;12.05;6.53;;;;;;;;;;4333957;33;20168;-78
2021/09/02 04:13:04;;;;;;;12.32;6.30;;;;;;;;;;4333753;33;20234;-78
2021/09/02 04:15:32;;;;;;;12.00;6.03;;;;;;;;;;4333922;33;20273;-78
2021/09/02 04:17:58;;;;;;;9.63;6.03;;;;;;;;;;4347542;33;20501;-78
2021/09/02 04:20:23;;;;;;;11.00;6.18;;;;;;;;;;4348727;33;20218;-76
2021/09/02 04:22:48;;;;;;;9.93;5.65;;;;;;;;;;4348400;33;20469;-79
2021/09/02 04:25:18;;;;;;;12.37;6.25;;;;;;;;;;4348693;33;20174;-78
2021/09/02 04:27:44;;;;;;;12.70;6.95;;;;;;;;;;4336961;33;20167;-78
2021/09/02 04:30:13;;;;;;;9.43;6.10;;;;;;;;;;4333594;33;20213;-78
2021/09/02 04:32:39;;;;;;;12.45;6.65;;;;;;;;;;4345396;33;20163;-78
2021/09/02 04:35:07;;;;;;;11.63;7.12;;;;;;;;;;4348630;33;20474;-78
2021/09/02 04:37:36;;;;;;;11.12;6.32;;;;;;;;;;4354458;32;20195;-79
2021/09/02 04:40:04;;;;;;;13.80;6.47;;;;;;;;;;4333679;33;20167;-79
2021/09/02 04:42:50;;;;;;;11.45;6.60;;;;;;;;;;4333477;33;20225;-78
2021/09/02 04:45:17;;;;;;;10.95;6.40;;;;;;;;;;4343417;33;20179;-77
2021/09/02 04:47:50;;;;;;;11.32;6.53;;;;;;;;;;4332625;33;20210;-78
2021/09/02 04:50:15;;;;;;;13.98;6.60;;;;;;;;;;4336668;33;20163;-77
2021/09/02 04:52:40;;;;;;;12.88;6.93;;;;;;;;;;4347765;33;20236;-78
2021/09/02 04:55:06;;;;;;;14.85;7.93;;;;;;;;;;4348896;33;20158;-79
2021/09/02 04:57:31;;;;;;;15.00;7.47;;;;;;;;;;4341290;32;20513;-78
2021/09/02 05:00:00;;;;;;;12.68;7.35;;;;;;;;;;4348243;33;20444;-77
2021/09/02 05:02:25;;;;;;;13.98;7.55;;;;;;;;;;4347724;33;20202;-78
2021/09/02 05:04:50;;;;;;;14.30;6.82;;;;;;;;;;4345457;33;20163;-78
2021/09/02 05:07:16;;;;;;;9.75;6.35;;;;;;;;;;4354443;32;20170;-78
2021/09/02 05:09:42;;;;;;;11.12;6.82;;;;;;;;;;4343675;33;20167;-78
2021/09/02 05:12:15;;;;;;;12.88;7.22;;;;;;;;;;4336404;33;20156;-78
2021/09/02 05:14:47;;;;;;;11.10;6.82;;;;;;;;;;4333232;33;20677;-78
2021/09/02 05:17:13;;;;;;;11.75;6.37;;;;;;;;;;4333904;33;20515;-79
2021/09/02 05:19:38;;;;;;;14.48;6.82;;;;;;;;;;4334585;33;20175;-79
2021/09/02 05:22:11;;;;;;;12.55;6.53;;;;;;;;;;4340204;33;20605;-79
2021/09/02 05:24:55;;;;;;;;;;;;;;;;;;;;;
2021/09/02 05:27:26;;;;;;;12.20;6.70;;;;;;;;;;4359184;32;20194;-78
2021/09/02 05:33:03;;;;;;;13.38;6.82;;;;;;;;;;4349419;33;20151;-78
2021/09/02 05:35:28;;;;;;;12.07;6.80;;;;;;;;;;4335929;33;20176;-78
2021/09/02 05:37:53;;;;;;;13.13;6.75;;;;;;;;;;4332847;33;20581;-78
2021/09/02 05:40:19;;;;;;;11.23;6.22;;;;;;;;;;4347188;33;20222;-77
2021/09/02 05:42:46;;;;;;;14.18;6.75;;;;;;;;;;4347219;33;20512;-78
2021/09/02 05:45:14;;;;;;;12.93;6.47;;;;;;;;;;4346893;32;20241;-79
2021/09/02 05:47:48;;;;;;;11.07;6.55;;;;;;;;;;4345648;33;20230;-79
2021/09/02 05:50:14;;;;;;;13.77;6.75;;;;;;;;;;4334754;33;20284;-79
2021/09/02 05:52:39;;;;;;;15.98;6.68;;;;;;;;;;4335932;33;20159;-78
2021/09/02 05:55:07;;;;;;;10.93;6.30;;;;;;;;;;4346806;33;20174;-80
2021/09/02 05:57:33;;;;;;;11.02;5.97;;;;;;;;;;4346987;33;20194;-79
2021/09/02 05:59:58;;;;;;;12.20;6.12;;;;;;;;;;4332790;33;20179;-79
2021/09/02 06:02:23;;;;;;;10.23;6.05;;;;;;;;;;4344859;33;20152;-78
2021/09/02 06:04:49;;;;;;;15.43;6.00;;;;;;;;;;4332641;33;20548;-72
2021/09/02 06:07:14;;;;;;;9.77;5.70;;;;;;;;;;4344276;33;20209;-79
2021/09/02 06:09:39;;;;;;;13.65;6.10;;;;;;;;;;4334569;33;20288;-79
2021/09/02 06:12:06;;;;;;;10.70;6.12;;;;;;;;;;4332310;33;20156;-78
2021/09/02 06:14:34;;;;;;;13.48;6.90;;;;;;;;;;4331723;33;20160;-78
2021/09/02 06:16:59;;;;;;;10.73;5.97;;;;;;;;;;4337967;33;20154;-79
2021/09/02 06:19:26;;;;;;;12.50;5.95;;;;;;;;;;4347097;33;20545;-78
2021/09/02 06:21:57;;;;;;;15.35;5.90;;;;;;;;;;4359518;32;20178;-78
2021/09/02 06:24:23;;;;;;;14.63;6.43;;;;;;;;;;4344240;33;20185;-76
2021/09/02 06:26:49;;;;;;;12.50;5.78;;;;;;;;;;4332029;33;20170;-79
2021/09/02 06:29:14;;;;;;;9.90;5.70;;;;;;;;;;4338340;33;20508;-76
2021/09/02 06:31:41;;;;;;;13.25;6.05;;;;;;;;;;4346497;33;20244;-78
2021/09/02 06:34:18;;;;;;;14.15;6.18;;;;;;;;;;4346250;33;20174;-78
2021/09/02 06:36:52;;;;;;;11.50;5.97;;;;;;;;;;4346546;33;20177;-79
2021/09/02 06:39:18;;;;;;;12.65;5.82;;;;;;;;;;4342732;33;20596;-77
2021/09/02 06:41:57;;;;;;;12.88;6.05;;;;;;;;;;4346414;33;20174;-77
2021/09/02 06:44:22;;;;;;;14.30;6.47;;;;;;;;;;4345212;33;20163;-77
2021/09/02 06:46:50;;;;;;;12.43;5.75;;;;;;;;;;4343172;33;20189;-77
2021/09/02 06:49:15;;;;;;;11.98;6.18;;;;;;;;;;4349524;33;20171;-77
2021/09/02 06:51:40;;;;;;;14.20;6.15;;;;;;;;;;4335514;33;20237;-78
2021/09/02 06:54:09;;;;;;;11.75;6.70;;;;;;;;;;4355099;33;20226;-77
2021/09/02 06:56:34;;;;;;;11.70;5.87;;;;;;;;;;4351109;33;20529;-77
2021/09/02 06:59:02;;;;;;;11.00;6.03;;;;;;;;;;4350187;33;20651;-79
2021/09/02 07:01:33;;;;;;;12.82;6.18;;;;;;;;;;4358633;32;20189;-77
2021/09/02 07:03:58;;;;;;;12.00;6.30;;;;;;;;;;4360090;33;20229;-76
2021/09/02 07:06:23;;;;;;;12.15;6.12;;;;;;;;;;4358453;33;20150;-80
2021/09/02 07:08:51;;;;;;;11.18;6.32;;;;;;;;;;4343107;33;20179;-75
2021/09/02 07:11:16;;;;;;;11.82;5.93;;;;;;;;;;4346332;33;20207;-75
2021/09/02 07:13:45;;;;;;;11.27;6.70;;;;;;;;;;4354223;32;20160;-76
2021/09/02 07:16:10;;;;;;;9.95;5.90;;;;;;;;;;4333863;33;20418;-78
2021/09/02 07:18:36;;;;;;;14.77;6.40;;;;;;;;;;4334267;33;20171;-76
2021/09/02 07:21:58;;;;;;;11.70;6.15;;;;;;;;;;4334877;33;20219;-77
2021/09/02 07:24:50;;;;;;;12.52;5.90;;;;;;;;;;4346999;33;20197;-77
2021/09/02 07:27:15;;;;;;;10.48;5.65;;;;;;;;;;4347247;33;20248;-76
2021/09/02 07:29:53;;;;;;;;;;;;;;;;;;;;;
2021/09/02 07:32:19;;;;;;;12.20;6.78;;;;;;;;;;4355723;33;20155;-76
2021/09/02 07:34:53;;;;;;;12.37;6.20;;;;;;;;;;4358121;33;20203;-77
2021/09/02 07:37:21;;;;;;;14.80;6.30;;;;;;;;;;4354854;32;20214;-78
2021/09/02 07:39:47;;;;;;;12.98;6.62;;;;;;;;;;4339924;33;20159;-78
2021/09/02 07:42:31;;;;;;;;;;;;;;;;;;;;;
2021/09/02 07:45:06;;;;;;;13.13;6.28;;;;;;;;;;4347725;33;20152;-78
2021/09/02 07:48:20;;;;;;;12.02;6.72;;;;;;;;;;4346432;33;20158;-76
2021/09/02 07:50:20;;;;;;;12.90;6.00;;;;;;;;;;4341730;33;20655;-78
2021/09/02 07:52:49;;;;;;;10.43;6.20;;;;;;;;;;4334265;33;20266;-78
2021/09/02 07:55:17;;;;;;;12.63;6.40;;;;;;;;;;4341033;33;20213;-77
2021/09/02 07:57:47;;;;;;;9.20;5.35;;;;;;;;;;4348283;33;20158;-75
2021/09/02 08:00:44;;;;;;;10.77;5.47;;;;;;;;;;4361699;32;20208;-75
2021/09/02 08:03:13;;;;;;;9.73;5.65;;;;;;;;;;4351877;32;20178;-76
2021/09/02 08:05:38;;;;;;;9.27;4.62;;;;;;;;;;4360755;32;20480;-76
2021/09/02 08:08:06;;;;;;;7.97;4.32;;;;;;;;;;4360843;32;20228;-76
2021/09/02 08:10:52;;;;;;;8.85;4.82;;;;;;;;;;4360571;32;20159;-76
2021/09/02 08:13:20;;;;;;;8.52;4.60;;;;;;;;;;4360708;33;20163;-77
2021/09/02 08:16:00;;;;;;;8.70;4.37;;;;;;;;;;4348482;33;20179;-78
2021/09/02 08:18:28;;;;;;;9.52;5.07;;;;;;;;;;4348624;33;20240;-74
2021/09/02 08:21:03;;;;;;;10.88;5.10;;;;;;;;;;4337107;33;20159;-85
2021/09/02 08:26:40;;;;;;;10.43;4.70;;;;;;;;;;4349671;33;20159;-87
2021/09/02 08:29:16;;;;;;;7.18;4.05;;;;;;;;;;4358486;32;20285;-86
2021/09/02 08:32:06;;;;;;;9.20;4.60;;;;;;;;;;4346386;33;20450;-86
2021/09/02 08:34:54;;;;;;;9.40;4.87;;;;;;;;;;4323754;33;20168;-86
2021/09/02 08:37:38;;;;;;;11.60;5.55;;;;;;;;;;4331856;33;20156;-86
2021/09/02 08:41:27;;;;;;;;;;;;;;;;;;;;;
2021/09/02 08:43:19;;;;;;;10.13;4.82;;;;;;;;;;4327239;32;20238;-87
2021/09/02 08:45:50;;;;;;;9.48;5.03;;;;;;;;;;4331361;33;20198;-87
2021/09/02 08:48:28;;;;;;;10.07;5.32;;;;;;;;;;4331696;33;20597;-86
2021/09/02 08:54:18;;;;;;;7.75;5.07;;;;;;;;;;4329071;33;20528;-87
2021/09/02 08:56:49;;;;;;;9.63;5.25;;;;;;;;;;4354739;33;20635;-85
2021/09/02 08:59:17;;;;;;;9.88;4.78;;;;;;;;;;4331335;33;20607;-85
2021/09/02 09:01:51;;;;;;;12.57;5.75;;;;;;;;;;4332033;33;20174;-86
2021/09/02 09:04:31;;;;;;;;;;;;;;;;;;;;;
2021/09/02 09:07:02;;;;;;;11.35;6.12;;;;;;;;;;4333079;33;20132;-86
2021/09/02 09:09:36;;;;;;;11.02;5.57;;;;;;;;;;4343305;33;20577;-85
2021/09/02 09:12:39;;;;;;;14.68;5.43;;;;;;;;;;4331016;33;20177;-86
2021/09/02 09:15:27;;;;;;;11.48;5.50;;;;;;;;;;4331257;33;20234;-86
2021/09/02 09:18:00;;;;;;;11.20;5.50;;;;;;;;;;4331150;33;20198;-86
2021/09/02 09:20:38;;;;;;;11.57;5.62;;;;;;;;;;4330817;33;20230;-87
2021/09/02 09:23:04;;;;;;;9.32;5.12;;;;;;;;;;4330761;33;20155;-86
2021/09/02 09:25:38;;;;;;;10.07;5.20;;;;;;;;;;4330375;33;20186;-86
2021/09/02 09:28:09;;;;;;;15.98;5.95;;;;;;;;;;4330522;33;20226;-85
2021/09/02 09:30:39;;;;;;;10.57;5.40;;;;;;;;;;4331032;33;20275;-87
2021/09/02 09:33:16;;;;;;;11.15;5.78;;;;;;;;;;4332843;33;20155;-85
2021/09/02 09:35:52;;;;;;;;;;;;;;;;;;;;;
2021/09/02 09:38:44;;;;;;;10.65;5.80;;;;;;;;;;4332354;33;20558;-87
2021/09/02 09:41:10;;;;;;;10.68;5.57;;;;;;;;;;4327491;33;20194;-87
2021/09/02 09:44:19;;;;;;;10.85;5.20;;;;;;;;;;4330829;33;20167;-84
2021/09/02 09:46:40;;;;;;;9.52;5.37;;;;;;;;;;4331079;33;20172;-85
2021/09/02 09:49:18;;;;;;;9.85;5.68;;;;;;;;;;4330828;33;20226;-86
2021/09/02 09:52:31;;;;;;;13.38;6.20;;;;;;;;;;4330117;33;20190;-86
2021/09/02 09:54:59;;;;;;;14.25;5.85;;;;;;;;;;4323341;33;20171;-86
2021/09/02 09:57:27;;;;;;;13.73;5.75;;;;;;;;;;4321791;33;20227;-86
2021/09/02 10:00:16;;;;;;;11.12;6.15;;;;;;;;;;4330859;33;20160;-86
2021/09/02 10:02:54;;;;;;;10.98;5.62;;;;;;;;;;4326024;33;20198;-86
2021/09/02 10:05:22;;;;;;;10.13;5.65;;;;;;;;;;4330729;33;20163;-87
2021/09/02 10:07:49;;;;;;;10.23;5.68;;;;;;;;;;4331109;33;20167;-84
2021/09/02 10:10:19;;;;;;;11.88;5.80;;;;;;;;;;4329857;33;20164;-86
2021/09/02 10:12:48;;;;;;;13.35;5.47;;;;;;;;;;4330349;33;20602;-86
2021/09/02 10:15:20;;;;;;;13.90;6.30;;;;;;;;;;4330024;33;20186;-86
2021/09/02 10:18:00;;;;;;;14.45;6.20;;;;;;;;;;4330143;33;20171;-86
2021/09/02 10:20:36;;;;;;;10.65;6.35;;;;;;;;;;4331049;33;20222;-88
2021/09/02 10:23:28;;;;;;;10.82;5.68;;;;;;;;;;4329836;33;20159;-85
2021/09/02 10:26:35;;;;;;;9.55;5.60;;;;;;;;;;4331014;33;20197;-82
2021/09/02 10:28:56;;;;;;;14.02;6.30;;;;;;;;;;4338715;33;20187;-84
2021/09/02 10:31:27;;;;;;;10.77;5.47;;;;;;;;;;4332374;33;20167;-85
2021/09/02 10:33:56;;;;;;;9.30;5.30;;;;;;;;;;4331987;33;20159;-88
2021/09/02 10:36:45;;;;;;;14.23;5.62;;;;;;;;;;4332003;33;20266;-86
2021/09/02 10:39:10;;;;;;;9.77;5.35;;;;;;;;;;4345352;33;20163;-85
2021/09/02 10:41:44;;;;;;;12.65;5.55;;;;;;;;;;4332125;33;20229;-85
2021/09/02 10:44:12;;;;;;;14.80;6.15;;;;;;;;;;4331642;33;20160;-86
2021/09/02 10:46:48;;;;;;;10.55;6.00;;;;;;;;;;4331972;33;20250;-86
2021/09/02 10:49:52;;;;;;;10.43;5.47;;;;;;;;;;4331977;33;20220;-86
2021/09/02 10:52:32;;;;;;;12.23;6.22;;;;;;;;;;4347549;33;20595;-86
2021/09/02 10:55:17;;;;;;;12.63;6.10;;;;;;;;;;4334722;33;20214;-86
2021/09/02 10:58:00;;;;;;;10.98;5.70;;;;;;;;;;4335585;33;20178;-87
2021/09/02 11:01:11;;;;;;;12.82;5.72;;;;;;;;;;4335371;33;20592;-84
2021/09/02 11:03:39;;;;;;;11.05;5.95;;;;;;;;;;4335436;33;20186;-86
2021/09/02 11:06:15;;;;;;;10.30;5.57;;;;;;;;;;4335573;33;20201;-86
2021/09/02 11:09:13;;;;;;;11.18;5.90;;;;;;;;;;4335023;33;20159;-86
2021/09/02 11:12:23;;;;;;;;;;;;;;;;;;;;;
2021/09/02 11:14:54;;;;;;;15.95;6.95;;;;;;;;;;4348303;33;20592;-87
2021/09/02 11:17:40;;;;;;;10.73;6.25;;;;;;;;;;4351102;33;20194;-87
2021/09/02 11:20:28;;;;;;;11.93;5.50;;;;;;;;;;4339274;33;20178;-84
2021/09/02 11:23:18;;;;;;;14.75;6.10;;;;;;;;;;4337885;33;20194;-86
2021/09/02 11:25:55;;;;;;;12.07;6.28;;;;;;;;;;4353036;33;20190;-87
2021/09/02 11:28:49;;;;;;;11.98;6.00;;;;;;;;;;4335073;33;20183;-86
2021/09/02 11:31:24;;;;;;;14.75;6.50;;;;;;;;;;4335253;33;20193;-88
2021/09/02 11:33:51;;;;;;;10.20;5.87;;;;;;;;;;4334450;33;20220;-86
2021/09/02 11:36:22;;;;;;;9.70;5.50;;;;;;;;;;4346918;33;20190;-86
2021/09/02 11:38:49;;;;;;;11.07;5.18;;;;;;;;;;4334292;33;20171;-86
2021/09/02 11:41:53;;;;;;;10.60;5.80;;;;;;;;;;4334312;33;20160;-87
2021/09/02 11:44:37;;;;;;;;;;;;;;;;;;;;;
2021/09/02 11:47:15;;;;;;;9.57;5.57;;;;;;;;;;4308362;33;20198;-86
2021/09/02 11:50:27;;;;;;;10.85;5.80;;;;;;;;;;4304246;33;20246;-86
2021/09/02 11:53:04;;;;;;;12.10;6.57;;;;;;;;;;4307473;33;20198;-87
2021/09/02 11:55:42;;;;;;;11.35;6.22;;;;;;;;;;4347884;33;20124;-84
2021/09/02 11:58:36;;;;;;;10.73;5.70;;;;;;;;;;4334415;33;20163;-86
2021/09/02 12:01:07;;;;;;;12.15;6.12;;;;;;;;;;4334278;33;20268;-86
2021/09/02 12:04:04;;;;;;;9.45;6.00;;;;;;;;;;4334687;33;20163;-84
2021/09/02 12:06:35;;;;;;;10.57;4.85;;;;;;;;;;4334019;33;20215;-88
2021/09/02 12:09:30;;;;;;;10.70;6.25;;;;;;;;;;4334143;33;20199;-87
2021/09/02 12:12:04;;;;;;;11.35;5.80;;;;;;;;;;4333341;33;20506;-86
2021/09/02 12:14:32;;;;;;;10.75;5.65;;;;;;;;;;4334011;33;20190;-85
2021/09/02 12:17:04;;;;;;;10.57;5.70;;;;;;;;;;4334637;33;20163;-84
2021/09/02 12:19:29;;;;;;;10.32;6.25;;;;;;;;;;4335056;33;20159;-85
2021/09/02 12:22:10;;;;;;;11.57;6.18;;;;;;;;;;4335994;33;20159;-85
2021/09/02 12:24:35;;;;;;;12.57;5.70;;;;;;;;;;4335607;33;20174;-87
2021/09/02 12:27:00;;;;;;;12.40;6.27;;;;;;;;;;4335660;33;20564;-83
2021/09/02 12:32:44;;;;;;;;;;;;;;;;;;;;;
2021/09/02 12:35:13;;;;;;;14.55;6.40;;;;;;;;;;4349148;33;20158;-83
2021/09/02 12:38:02;;;;;;;7.65;5.40;;;;;;;;;;4349471;33;20120;-84
2021/09/02 12:40:27;;;;;;;10.27;5.70;;;;;;;;;;4335263;33;20151;-85
2021/09/02 12:43:17;;;;;;;12.63;6.25;;;;;;;;;;4334802;33;20282;-87
2021/09/02 12:46:01;;;;;;;10.13;5.57;;;;;;;;;;4338014;33;20162;-84
2021/09/02 12:48:26;;;;;;;9.52;5.95;;;;;;;;;;4340639;33;20155;-85
2021/09/02 12:51:02;;;;;;;8.52;5.50;;;;;;;;;;4337157;33;20160;-85
2021/09/02 12:53:49;;;;;;;11.82;5.82;;;;;;;;;;4338819;33;20222;-86
2021/09/02 12:56:20;;;;;;;9.15;5.62;;;;;;;;;;4339318;33;20155;-85
2021/09/02 12:58:50;;;;;;;11.02;5.70;;;;;;;;;;4333743;33;20205;-84
2021/09/02 13:01:18;;;;;;;10.75;6.12;;;;;;;;;;4333701;33;20163;-86
2021/09/02 13:03:51;;;;;;;12.82;7.10;;;;;;;;;;4333973;33;20177;-85
2021/09/02 13:06:16;;;;;;;10.10;6.50;;;;;;;;;;4333303;33;20182;-86
2021/09/02 13:08:41;;;;;;;10.23;5.68;;;;;;;;;;4333108;33;20209;-87
2021/09/02 13:11:18;;;;;;;11.38;6.85;;;;;;;;;;4333318;33;20201;-86
2021/09/02 13:13:50;;;;;;;12.68;6.90;;;;;;;;;;4334339;33;20232;-86
2021/09/02 13:16:15;;;;;;;12.45;6.35;;;;;;;;;;4333185;33;20238;-87
2021/09/02 13:18:42;;;;;;;12.27;6.15;;;;;;;;;;4333439;33;20186;-86
2021/09/02 13:21:10;;;;;;;8.70;5.78;;;;;;;;;;4333930;33;20148;-86
2021/09/02 13:23:36;;;;;;;9.27;6.20;;;;;;;;;;4333146;33;20178;-85
2021/09/02 13:26:05;;;;;;;10.38;6.40;;;;;;;;;;4346772;33;20213;-87
2021/09/02 13:28:41;;;;;;;12.03;6.67;;;;;;;;;;4333071;33;20202;-86
2021/09/02 13:31:06;;;;;;;14.10;6.53;;;;;;;;;;4332887;33;20240;-84
2021/09/02 13:33:38;;;;;;;13.25;6.78;;;;;;;;;;4333034;33;20171;-86
2021/09/02 13:36:08;;;;;;;12.50;6.35;;;;;;;;;;4332770;33;20577;-86
2021/09/02 13:38:57;;;;;;;13.10;6.45;;;;;;;;;;4332886;33;20148;-85
2021/09/02 13:41:26;;;;;;;12.45;6.18;;;;;;;;;;4333035;33;20174;-86
2021/09/02 13:43:51;;;;;;;12.68;6.80;;;;;;;;;;4332932;33;20260;-85
2021/09/02 13:46:29;;;;;;;13.90;7.03;;;;;;;;;;4332688;33;20592;-86
2021/09/02 13:49:06;;;;;;;13.82;7.37;;;;;;;;;;4332628;33;20298;-87
2021/09/02 13:51:53;;;;;;;14.32;6.80;;;;;;;;;;4344864;33;20571;-83
2021/09/02 13:54:30;;;;;;;12.32;7.32;;;;;;;;;;4333183;33;20217;-84
2021/09/02 13:56:58;;;;;;;12.18;6.40;;;;;;;;;;4333052;33;20150;-86
2021/09/02 13:59:24;;;;;;;11.23;6.72;;;;;;;;;;4345784;33;20135;-84
2021/09/02 14:02:05;;;;;;;10.20;6.72;;;;;;;;;;4332173;33;20152;-86
2021/09/02 14:04:36;;;;;;;10.57;6.43;;;;;;;;;;4332296;33;20167;-85
2021/09/02 14:07:06;;;;;;;9.70;6.00;;;;;;;;;;4332342;33;20194;-86
2021/09/02 14:09:37;;;;;;;9.13;5.72;;;;;;;;;;4333149;33;20238;-83
2021/09/02 14:15:00;;;;;;;11.02;6.22;;;;;;;;;;4300592;33;20163;-86
2021/09/02 14:17:31;;;;;;;12.65;7.00;;;;;;;;;;4288340;33;20160;-85
2021/09/02 14:20:26;;;;;;;12.30;6.32;;;;;;;;;;4332194;33;20186;-85
2021/09/02 14:22:52;;;;;;;12.45;6.45;;;;;;;;;;4338877;33;20245;-83
2021/09/02 14:25:17;;;;;;;11.15;6.82;;;;;;;;;;4332158;33;20513;-86
2021/09/02 14:27:43;;;;;;;10.82;6.87;;;;;;;;;;4332153;33;20159;-86
2021/09/02 14:30:10;;;;;;;9.13;5.80;;;;;;;;;;4331890;33;20168;-84
2021/09/02 14:35:51;;;;;;;13.15;6.75;;;;;;;;;;4341537;33;20145;-86
2021/09/02 14:38:30;;;;;;;12.10;6.93;;;;;;;;;;4332608;33;20186;-84
2021/09/02 14:40:55;;;;;;;11.93;6.75;;;;;;;;;;4332697;33;20189;-85
2021/09/02 14:43:49;;;;;;;12.18;7.25;;;;;;;;;;4332497;33;20187;-86
2021/09/02 14:46:17;;;;;;;11.70;7.03;;;;;;;;;;4332605;33;20159;-86
2021/09/02 14:48:45;;;;;;;12.55;7.15;;;;;;;;;;4332152;33;20152;-86
2021/09/02 14:51:11;;;;;;;13.70;7.30;;;;;;;;;;4332193;33;20151;-85
2021/09/02 14:53:36;;;;;;;13.45;7.47;;;;;;;;;;4332434;33;20186;-84
2021/09/02 14:56:01;;;;;;;14.65;7.37;;;;;;;;;;4332255;33;20182;-85
2021/09/02 14:58:27;;;;;;;10.95;7.15;;;;;;;;;;4331955;33;20151;-86
2021/09/02 15:00:54;;;;;;;14.32;7.35;;;;;;;;;;4332604;33;20159;-85
2021/09/02 15:03:33;;;;;;;11.95;6.82;;;;;;;;;;4332153;33;20148;-85
2021/09/02 15:06:01;;;;;;;12.60;6.65;;;;;;;;;;4331757;33;20156;-84
2021/09/02 15:08:29;;;;;;;10.27;6.37;;;;;;;;;;4331336;33;20151;-82
2021/09/02 15:11:03;;;;;;;11.80;6.72;;;;;;;;;;4331811;33;20182;-85
2021/09/02 15:13:38;;;;;;;;;;;;;;;;;;;;;
2021/09/02 15:16:04;;;;;;;16.35;7.72;;;;;;;;;;4345744;33;20139;-83
2021/09/02 15:18:33;;;;;;;14.15;7.35;;;;;;;;;;4331620;33;20193;-84
2021/09/02 15:21:05;;;;;;;14.48;7.87;;;;;;;;;;4346111;33;20173;-84
2021/09/02 15:23:37;;;;;;;13.40;7.55;;;;;;;;;;4331635;33;20637;-85
2021/09/02 15:26:08;;;;;;;13.60;7.37;;;;;;;;;;4332102;33;20164;-85
2021/09/02 15:28:34;;;;;;;16.60;7.72;;;;;;;;;;4331920;33;20259;-81
2021/09/02 15:31:07;;;;;;;15.27;8.00;;;;;;;;;;4331557;33;20593;-85
2021/09/02 15:33:35;;;;;;;14.45;7.18;;;;;;;;;;4332319;33;20167;-84
2021/09/02 15:36:26;;;;;;;14.30;7.47;;;;;;;;;;4330102;33;20254;-85
2021/09/02 15:38:55;;;;;;;16.02;7.90;;;;;;;;;;4334408;33;20166;-85
2021/09/02 15:41:41;;;;;;;17.50;7.65;;;;;;;;;;4334249;33;20190;-84